Morton S Bouchard Jr — WSE9678 — position and weather

sailwx.info

Track history (hours):
 
Tides and Currents Weather Stations Pressure Air Temp Water Temp Dewpoint Dewpoint Depression Visibility Wind Speed Wind Dir Waves Ship Positions

Morton S Bouchard Jr

Owner: BOUCHARD TRANSPORTATION CO INC, MELVILLE, NY. More information available from US FCC via Universal Licensing System and Coast Guard Vessel Documentation Center.

Last reported at 2016-Apr-29 14:33 UTC. Time now 2016-Apr-29 15:49 UTC.
Position N 40°48' W 073°53'.

Length 33 m; draft 6.3 m.

Type: Tug. MMSI: 367006550.

Date/timePositionNaut miles runAvg speedWind from/ knotsBaromVisibWave heightAir tempDewpointWater temp
2016-Apr-29 14:33N 40°48' W 073°53'7 7.1
2016-Apr-29 13:33N 40°42' W 073°59'7 6.5
2016-Apr-29 12:33N 40°39' W 074°06'1 0.6
2016-Apr-29 11:33N 40°39' W 074°07'0 0.3
2016-Apr-29 10:32N 40°39' W 074°07'0 0.0
2016-Apr-29 09:29N 40°39' W 074°07'0 0.0
2016-Apr-29 08:32N 40°39' W 074°07'0 0.0
2016-Apr-29 07:21N 40°39' W 074°07'0 0.0
2016-Apr-29 06:26N 40°39' W 074°07'0 0.0
2016-Apr-29 04:33N 40°39' W 074°07'0 0.0
2016-Apr-29 03:29N 40°39' W 074°07'0 0.0
2016-Apr-29 02:33N 40°39' W 074°07'0 0.0
2016-Apr-29 01:33N 40°39' W 074°07'0 0.0
2016-Apr-29 00:33N 40°39' W 074°07'0 0.0
2016-Apr-28 23:31N 40°39' W 074°07'0 0.0
2016-Apr-28 22:33N 40°39' W 074°07'0 0.0
2016-Apr-28 21:33N 40°39' W 074°07'0 0.0
2016-Apr-28 20:33N 40°39' W 074°07'0 0.0
2016-Apr-28 19:34N 40°39' W 074°07'0 0.0
2016-Apr-28 18:32N 40°39' W 074°07'0 0.4
2016-Apr-28 17:33N 40°39' W 074°07'3 2.8
2016-Apr-28 16:33N 40°39' W 074°03'0 0.3
2016-Apr-28 15:33N 40°39' W 074°03'0 0.0
2016-Apr-28 14:33N 40°39' W 074°03'0 0.2
2016-Apr-28 13:33N 40°39' W 074°03'9 9.0
2016-Apr-28 12:31N 40°47' W 073°56'53 8.9
2016-Apr-28 06:32N 41°05' W 072°51'1010.2
2016-Apr-28 05:33N 41°08' W 072°38'1110.8
2016-Apr-28 04:33N 41°11' W 072°24'1110.7
2016-Apr-28 03:33N 41°14' W 072°10'90 7.5
2016-Apr-27 15:29N 42°10' W 070°36'9 9.9
2016-Apr-27 14:33N 42°18' W 070°44'9 9.0
2016-Apr-27 13:34N 42°22' W 070°54'4 3.8
2016-Apr-27 12:33N 42°20' W 070°58'4 3.9
2016-Apr-27 11:33N 42°23' W 071°02'1 0.8
2016-Apr-27 10:33N 42°24' W 071°01'0 0.0
2016-Apr-27 09:33N 42°24' W 071°01'1 0.7
2016-Apr-27 08:33N 42°23' W 071°02'1 0.8
2016-Apr-27 07:33N 42°23' W 071°03'0 0.0
2016-Apr-27 06:33N 42°23' W 071°03'0 0.0
2016-Apr-27 05:33N 42°23' W 071°03'0 0.0
2016-Apr-27 04:30N 42°23' W 071°03'0 0.0
2016-Apr-27 03:33N 42°23' W 071°03'0 0.0
2016-Apr-27 02:33N 42°23' W 071°03'0 0.0
2016-Apr-27 01:33N 42°23' W 071°03'0 0.0
2016-Apr-27 00:33N 42°23' W 071°03'0 0.0
2016-Apr-26 23:33N 42°23' W 071°03'0 0.0
2016-Apr-26 22:33N 42°23' W 071°03'1 1.0
2016-Apr-26 21:33N 42°23' W 071°01'0 0.1
2016-Apr-26 20:33N 42°23' W 071°01'2 1.8
2016-Apr-26 19:33N 42°21' W 071°02'0 0.1
2016-Apr-26 18:33N 42°21' W 071°02'0 0.0
2016-Apr-26 17:33N 42°21' W 071°02'0 0.1
2016-Apr-26 16:33N 42°21' W 071°02'0 0.0
2016-Apr-26 15:33N 42°21' W 071°02'0 0.0
2016-Apr-26 14:34N 42°21' W 071°02'0 0.0
2016-Apr-26 13:33N 42°21' W 071°02'0 0.0
2016-Apr-26 12:33N 42°21' W 071°02'0 0.0
2016-Apr-26 11:33N 42°21' W 071°02'0 0.0
2016-Apr-26 10:33N 42°21' W 071°02'0 0.1
2016-Apr-26 09:33N 42°21' W 071°02'0 0.0
2016-Apr-26 08:33N 42°21' W 071°02'0 0.0
2016-Apr-26 07:33N 42°21' W 071°02'0 0.1
2016-Apr-26 06:33N 42°21' W 071°02'4 4.3
2016-Apr-26 05:33N 42°21' W 070°56'6 6.3
2016-Apr-26 04:33N 42°21' W 070°48'8 7.6
2016-Apr-26 03:33N 42°15' W 070°41'8 7.6
2016-Apr-26 02:33N 42°08' W 070°37'8 7.6
2016-Apr-26 01:33N 42°02' W 070°33'90 5.5
2016-Apr-25 09:22N 41°13' W 072°13'6 7.2
2016-Apr-25 08:33N 41°11' W 072°21'8 7.5
2016-Apr-25 07:33N 41°08' W 072°30'7 7.4
2016-Apr-25 06:33N 41°06' W 072°39'8 7.6
2016-Apr-25 05:33N 41°05' W 072°49'53 7.5
2016-Apr-24 22:23N 40°47' W 073°56'5 6.0
2016-Apr-24 21:32N 40°42' W 073°59'4 4.0
2016-Apr-24 20:33N 40°39' W 074°03'0 0.0
2016-Apr-24 19:33N 40°39' W 074°03'0 0.0
2016-Apr-24 18:33N 40°39' W 074°03'0 0.0
2016-Apr-24 17:33N 40°39' W 074°03'3 2.9
2016-Apr-24 16:33N 40°39' W 074°06'0 0.5
2016-Apr-24 15:33N 40°39' W 074°07'3 3.2
2016-Apr-24 14:33N 40°39' W 074°03'0 0.2
2016-Apr-24 13:33N 40°39' W 074°03'0 0.1
2016-Apr-24 12:33N 40°39' W 074°03'0 0.1
2016-Apr-24 11:33N 40°39' W 074°03'0 0.0
2016-Apr-24 10:33N 40°39' W 074°03'0 0.0
2016-Apr-24 09:33N 40°39' W 074°03'0 0.0
2016-Apr-24 08:33N 40°39' W 074°03'0 0.0
2016-Apr-24 07:33N 40°39' W 074°03'0 0.0
2016-Apr-24 06:33N 40°39' W 074°03'0 0.0
2016-Apr-24 05:33N 40°39' W 074°03'0 0.0
2016-Apr-24 04:33N 40°39' W 074°03'0 0.1
2016-Apr-24 03:33N 40°39' W 074°03'1 1.1
2016-Apr-24 02:33N 40°39' W 074°04'4 4.0
2016-Apr-24 01:33N 40°38' W 074°10'0 0.0
2016-Apr-24 00:33N 40°38' W 074°09'0 0.0
2016-Apr-23 23:33N 40°38' W 074°09'2 1.8
2016-Apr-23 22:33N 40°39' W 074°07'0 0.0
2016-Apr-23 21:33N 40°39' W 074°07'0 0.4
2016-Apr-23 20:34N 40°39' W 074°07'0 0.3
2016-Apr-23 19:33N 40°39' W 074°06'3 2.6
2016-Apr-23 18:33N 40°39' W 074°03'0 0.0
2016-Apr-23 17:33N 40°39' W 074°03'0 0.2
2016-Apr-23 16:33N 40°39' W 074°03'8 8.4
2016-Apr-23 15:33N 40°46' W 073°57'5 0.2
2016-Apr-22 09:33N 40°48' W 073°50'6 6.2
2016-Apr-22 08:33N 40°45' W 073°58'5 5.5
2016-Apr-22 07:33N 40°41' W 074°02'0 0.5
2016-Apr-22 06:33N 40°40' W 074°02'0 0.0
2016-Apr-22 05:33N 40°40' W 074°02'1 0.6
2016-Apr-22 04:33N 40°40' W 074°03'4 4.0
2016-Apr-22 03:33N 40°39' W 074°08'4 3.7
2016-Apr-22 02:33N 40°38' W 074°12'4 4.0
2016-Apr-22 01:33N 40°39' W 074°07'0 0.0
2016-Apr-22 00:33N 40°39' W 074°07'0 0.0
2016-Apr-21 23:33N 40°39' W 074°07'0 0.0
2016-Apr-21 22:33N 40°39' W 074°07'0 0.0
2016-Apr-21 21:33N 40°39' W 074°07'0 0.0
2016-Apr-21 20:33N 40°39' W 074°07'0 0.0
2016-Apr-21 19:33N 40°39' W 074°07'0 0.5
2016-Apr-21 18:33N 40°39' W 074°08'2 1.8
2016-Apr-21 17:33N 40°39' W 074°10'2 2.0
2016-Apr-21 16:33N 40°37' W 074°12'2 0.7
2016-Apr-21 13:33N 40°39' W 074°10'6 5.7
2016-Apr-21 12:33N 40°39' W 074°03'0 0.1
2016-Apr-21 11:33N 40°39' W 074°03'0 0.1
2016-Apr-21 10:33N 40°39' W 074°03'0 0.3
2016-Apr-21 09:33N 40°39' W 074°03'7 7.1
2016-Apr-21 08:33N 40°45' W 073°58'6 6.2
2016-Apr-21 07:33N 40°48' W 073°50'0 0.0
2016-Apr-20 02:32N 40°48' W 073°50'6 6.3
2016-Apr-20 01:33N 40°45' W 073°58'8 7.7
2016-Apr-20 00:33N 40°39' W 074°03'0 0.1
2016-Apr-19 23:33N 40°39' W 074°03'0 0.1
2016-Apr-19 22:33N 40°39' W 074°03'0 0.1
2016-Apr-19 21:33N 40°39' W 074°03'0 0.0
2016-Apr-19 20:33N 40°39' W 074°03'3 3.5
2016-Apr-19 19:33N 40°39' W 074°08'4 4.4
2016-Apr-19 18:33N 40°36' W 074°12'  
Track history (hours):
 
Tides and Currents Weather Stations Pressure Air Temp Water Temp Dewpoint Dewpoint Depression Visibility Wind Speed Wind Dir Waves Ship Positions

Morton S Bouchard Jr

Owner: BOUCHARD TRANSPORTATION CO INC, MELVILLE, NY. More information available from US FCC via Universal Licensing System and Coast Guard Vessel Documentation Center.

Last reported at 2016-Apr-29 14:33 UTC. Time now 2016-Apr-29 15:49 UTC.
Position N 40°48' W 073°53'.

Length 33 m; draft 6.3 m.

Type: Tug. MMSI: 367006550.

Date/timePositionNaut miles runAvg speedWind from/ knotsBaromVisibWave heightAir tempDewpointWater temp
2016-Apr-29 14:33N 40°48' W 073°53'7 7.1
2016-Apr-29 13:33N 40°42' W 073°59'7 6.5
2016-Apr-29 12:33N 40°39' W 074°06'1 0.6
2016-Apr-29 11:33N 40°39' W 074°07'0 0.3
2016-Apr-29 10:32N 40°39' W 074°07'0 0.0
2016-Apr-29 09:29N 40°39' W 074°07'0 0.0
2016-Apr-29 08:32N 40°39' W 074°07'0 0.0
2016-Apr-29 07:21N 40°39' W 074°07'0 0.0
2016-Apr-29 06:26N 40°39' W 074°07'0 0.0
2016-Apr-29 04:33N 40°39' W 074°07'0 0.0
2016-Apr-29 03:29N 40°39' W 074°07'0 0.0
2016-Apr-29 02:33N 40°39' W 074°07'0 0.0
2016-Apr-29 01:33N 40°39' W 074°07'0 0.0
2016-Apr-29 00:33N 40°39' W 074°07'0 0.0
2016-Apr-28 23:31N 40°39' W 074°07'0 0.0
2016-Apr-28 22:33N 40°39' W 074°07'0 0.0
2016-Apr-28 21:33N 40°39' W 074°07'0 0.0
2016-Apr-28 20:33N 40°39' W 074°07'0 0.0
2016-Apr-28 19:34N 40°39' W 074°07'0 0.0
2016-Apr-28 18:32N 40°39' W 074°07'0 0.4
2016-Apr-28 17:33N 40°39' W 074°07'3 2.8
2016-Apr-28 16:33N 40°39' W 074°03'0 0.3
2016-Apr-28 15:33N 40°39' W 074°03'0 0.0
2016-Apr-28 14:33N 40°39' W 074°03'0 0.2
2016-Apr-28 13:33N 40°39' W 074°03'9 9.0
2016-Apr-28 12:31N 40°47' W 073°56'53 8.9
2016-Apr-28 06:32N 41°05' W 072°51'1010.2
2016-Apr-28 05:33N 41°08' W 072°38'1110.8
2016-Apr-28 04:33N 41°11' W 072°24'1110.7
2016-Apr-28 03:33N 41°14' W 072°10'90 7.5
2016-Apr-27 15:29N 42°10' W 070°36'9 9.9
2016-Apr-27 14:33N 42°18' W 070°44'9 9.0
2016-Apr-27 13:34N 42°22' W 070°54'4 3.8
2016-Apr-27 12:33N 42°20' W 070°58'4 3.9
2016-Apr-27 11:33N 42°23' W 071°02'1 0.8
2016-Apr-27 10:33N 42°24' W 071°01'0 0.0
2016-Apr-27 09:33N 42°24' W 071°01'1 0.7
2016-Apr-27 08:33N 42°23' W 071°02'1 0.8
2016-Apr-27 07:33N 42°23' W 071°03'0 0.0
2016-Apr-27 06:33N 42°23' W 071°03'0 0.0
2016-Apr-27 05:33N 42°23' W 071°03'0 0.0
2016-Apr-27 04:30N 42°23' W 071°03'0 0.0
2016-Apr-27 03:33N 42°23' W 071°03'0 0.0
2016-Apr-27 02:33N 42°23' W 071°03'0 0.0
2016-Apr-27 01:33N 42°23' W 071°03'0 0.0
2016-Apr-27 00:33N 42°23' W 071°03'0 0.0
2016-Apr-26 23:33N 42°23' W 071°03'0 0.0
2016-Apr-26 22:33N 42°23' W 071°03'1 1.0
2016-Apr-26 21:33N 42°23' W 071°01'0 0.1
2016-Apr-26 20:33N 42°23' W 071°01'2 1.8
2016-Apr-26 19:33N 42°21' W 071°02'0 0.1
2016-Apr-26 18:33N 42°21' W 071°02'0 0.0
2016-Apr-26 17:33N 42°21' W 071°02'0 0.1
2016-Apr-26 16:33N 42°21' W 071°02'0 0.0
2016-Apr-26 15:33N 42°21' W 071°02'0 0.0
2016-Apr-26 14:34N 42°21' W 071°02'0 0.0
2016-Apr-26 13:33N 42°21' W 071°02'0 0.0
2016-Apr-26 12:33N 42°21' W 071°02'0 0.0
2016-Apr-26 11:33N 42°21' W 071°02'0 0.0
2016-Apr-26 10:33N 42°21' W 071°02'0 0.1
2016-Apr-26 09:33N 42°21' W 071°02'0 0.0
2016-Apr-26 08:33N 42°21' W 071°02'0 0.0
2016-Apr-26 07:33N 42°21' W 071°02'0 0.1
2016-Apr-26 06:33N 42°21' W 071°02'4 4.3
2016-Apr-26 05:33N 42°21' W 070°56'6 6.3
2016-Apr-26 04:33N 42°21' W 070°48'8 7.6
2016-Apr-26 03:33N 42°15' W 070°41'8 7.6
2016-Apr-26 02:33N 42°08' W 070°37'8 7.6
2016-Apr-26 01:33N 42°02' W 070°33'90 5.5
2016-Apr-25 09:22N 41°13' W 072°13'6 7.2
2016-Apr-25 08:33N 41°11' W 072°21'8 7.5
2016-Apr-25 07:33N 41°08' W 072°30'7 7.4
2016-Apr-25 06:33N 41°06' W 072°39'8 7.6
2016-Apr-25 05:33N 41°05' W 072°49'53 7.5
2016-Apr-24 22:23N 40°47' W 073°56'5 6.0
2016-Apr-24 21:32N 40°42' W 073°59'4 4.0
2016-Apr-24 20:33N 40°39' W 074°03'0 0.0
2016-Apr-24 19:33N 40°39' W 074°03'0 0.0
2016-Apr-24 18:33N 40°39' W 074°03'0 0.0
2016-Apr-24 17:33N 40°39' W 074°03'3 2.9
2016-Apr-24 16:33N 40°39' W 074°06'0 0.5
2016-Apr-24 15:33N 40°39' W 074°07'3 3.2
2016-Apr-24 14:33N 40°39' W 074°03'0 0.2
2016-Apr-24 13:33N 40°39' W 074°03'0 0.1
2016-Apr-24 12:33N 40°39' W 074°03'0 0.1
2016-Apr-24 11:33N 40°39' W 074°03'0 0.0
2016-Apr-24 10:33N 40°39' W 074°03'0 0.0
2016-Apr-24 09:33N 40°39' W 074°03'0 0.0
2016-Apr-24 08:33N 40°39' W 074°03'0 0.0
2016-Apr-24 07:33N 40°39' W 074°03'0 0.0
2016-Apr-24 06:33N 40°39' W 074°03'0 0.0
2016-Apr-24 05:33N 40°39' W 074°03'0 0.0
2016-Apr-24 04:33N 40°39' W 074°03'0 0.1
2016-Apr-24 03:33N 40°39' W 074°03'1 1.1
2016-Apr-24 02:33N 40°39' W 074°04'4 4.0
2016-Apr-24 01:33N 40°38' W 074°10'0 0.0
2016-Apr-24 00:33N 40°38' W 074°09'0 0.0
2016-Apr-23 23:33N 40°38' W 074°09'2 1.8
2016-Apr-23 22:33N 40°39' W 074°07'0 0.0
2016-Apr-23 21:33N 40°39' W 074°07'0 0.4
2016-Apr-23 20:34N 40°39' W 074°07'0 0.3
2016-Apr-23 19:33N 40°39' W 074°06'3 2.6
2016-Apr-23 18:33N 40°39' W 074°03'0 0.0
2016-Apr-23 17:33N 40°39' W 074°03'0 0.2
2016-Apr-23 16:33N 40°39' W 074°03'8 8.4
2016-Apr-23 15:33N 40°46' W 073°57'5 0.2
2016-Apr-22 09:33N 40°48' W 073°50'6 6.2
2016-Apr-22 08:33N 40°45' W 073°58'5 5.5
2016-Apr-22 07:33N 40°41' W 074°02'0 0.5
2016-Apr-22 06:33N 40°40' W 074°02'0 0.0
2016-Apr-22 05:33N 40°40' W 074°02'1 0.6
2016-Apr-22 04:33N 40°40' W 074°03'4 4.0
2016-Apr-22 03:33N 40°39' W 074°08'4 3.7
2016-Apr-22 02:33N 40°38' W 074°12'4 4.0
2016-Apr-22 01:33N 40°39' W 074°07'0 0.0
2016-Apr-22 00:33N 40°39' W 074°07'0 0.0
2016-Apr-21 23:33N 40°39' W 074°07'0 0.0
2016-Apr-21 22:33N 40°39' W 074°07'0 0.0
2016-Apr-21 21:33N 40°39' W 074°07'0 0.0
2016-Apr-21 20:33N 40°39' W 074°07'0 0.0
2016-Apr-21 19:33N 40°39' W 074°07'0 0.5
2016-Apr-21 18:33N 40°39' W 074°08'2 1.8
2016-Apr-21 17:33N 40°39' W 074°10'2 2.0
2016-Apr-21 16:33N 40°37' W 074°12'2 0.7
2016-Apr-21 13:33N 40°39' W 074°10'6 5.7
2016-Apr-21 12:33N 40°39' W 074°03'0 0.1
2016-Apr-21 11:33N 40°39' W 074°03'0 0.1
2016-Apr-21 10:33N 40°39' W 074°03'0 0.3
2016-Apr-21 09:33N 40°39' W 074°03'7 7.1
2016-Apr-21 08:33N 40°45' W 073°58'6 6.2
2016-Apr-21 07:33N 40°48' W 073°50'0 0.0
2016-Apr-20 02:32N 40°48' W 073°50'6 6.3
2016-Apr-20 01:33N 40°45' W 073°58'8 7.7
2016-Apr-20 00:33N 40°39' W 074°03'0 0.1
2016-Apr-19 23:33N 40°39' W 074°03'0 0.1
2016-Apr-19 22:33N 40°39' W 074°03'0 0.1
2016-Apr-19 21:33N 40°39' W 074°03'0 0.0
2016-Apr-19 20:33N 40°39' W 074°03'3 3.5
2016-Apr-19 19:33N 40°39' W 074°08'4 4.4
2016-Apr-19 18:33N 40°36' W 074°12'  

Dump ship's entire track history